This is the latest recevied weather packets stored in our database for station/object KR0L-13. If no packets are shown the sender has not sent any weather packets the latest 10 day(s).
| Time | Temp. | Humidity | Pressure | Rain* | Wind** | Luminosity | Snow |
|---|---|---|---|---|---|---|---|
| 1777777820 | 11.67° C | 51% | 1018.5 hPa | 0 mm | - | - | - |
| 1777777220 | 12.22° C | 49% | 1018.6 hPa | 0 mm | - | - | - |
| 1777776621 | 12.22° C | 48% | 1018.5 hPa | 0 mm | - | - | - |
| 1777776021 | 12.22° C | 47% | 1018.4 hPa | 0 mm | - | - | - |
| 1777775420 | 12.78° C | 45% | 1018.3 hPa | 0 mm | - | - | - |
| 1777774821 | 12.78° C | 45% | 1018.3 hPa | 0 mm | - | - | - |
| 1777774220 | 12.78° C | 46% | 1018.2 hPa | 0 mm | - | - | - |
| 1777773620 | 12.78° C | 43% | 1018 hPa | 0 mm | - | - | - |
| 1777773021 | 13.89° C | 42% | 1018 hPa | 0 mm | - | - | - |
| 1777772420 | 14.44° C | 40% | 1018 hPa | 0 mm | - | - | - |
| 1777771820 | 15° C | 38% | 1017.8 hPa | 0 mm | - | - | - |
| 1777771220 | 16.11° C | 35% | 1017.9 hPa | 0 mm | - | - | - |
| 1777770620 | 17.22° C | 33% | 1018 hPa | 0 mm | - | - | - |
| 1777770020 | 19.44° C | 29% | 1018 hPa | 0 mm | - | - | - |
| 1777769420 | 21.11° C | 26% | 1018.3 hPa | 0 mm | - | - | - |
| 1777768820 | 21.11° C | 26% | 1018.3 hPa | 0 mm | - | - | - |
| 1777768220 | 21.11° C | 25% | 1018.1 hPa | 0 mm | - | - | - |
| 1777767620 | 22.22° C | 23% | 1018.3 hPa | 0 mm | - | - | - |
| 1777767020 | 21.11° C | 24% | 1018.3 hPa | 0 mm | - | - | - |
| 1777766420 | 21.11° C | 26% | 1018.4 hPa | 0 mm | - | - | - |
| 1777765820 | 20.56° C | 25% | 1018.3 hPa | 0 mm | - | - | - |
| 1777765220 | 21.11° C | 25% | 1018.6 hPa | 0 mm | - | - | - |
| 1777764620 | 21.11° C | 25% | 1018.5 hPa | 0 mm | - | - | - |
| 1777764020 | 20.56° C | 25% | 1018.7 hPa | 0 mm | - | - | - |
| 1777763420 | 21.11° C | 24% | 1018.7 hPa | 0 mm | - | - | - |
* Rain latest hour (hover to see other rain measurements)
** Current wind speed in m/s (hover to see current wind gust speed)